sensor_id;sensor_type;location;lat;lon;timestamp;pressure;altitude;pressure_sealevel;temperature;humidity
25610;BME280;13479;49.044;8.716;2023-06-04T04:00:43;99034.63;;;14.05;45.23
25610;BME280;13479;49.044;8.716;2023-06-04T04:03:08;99041.34;;;14.09;45.13
25610;BME280;13479;49.044;8.716;2023-06-04T04:05:35;99041.78;;;14.23;44.86
25610;BME280;13479;49.044;8.716;2023-06-04T04:08:00;99051.88;;;14.37;44.53
25610;BME280;13479;49.044;8.716;2023-06-04T04:10:26;99069.59;;;14.38;44.35
25610;BME280;13479;49.044;8.716;2023-06-04T04:12:51;99076.25;;;14.34;44.81
25610;BME280;13479;49.044;8.716;2023-06-04T04:15:19;99071.69;;;14.52;44.21
25610;BME280;13479;49.044;8.716;2023-06-04T04:17:45;99077.78;;;14.63;44.25
25610;BME280;13479;49.044;8.716;2023-06-04T04:20:10;99083.81;;;14.65;44.09
25610;BME280;13479;49.044;8.716;2023-06-04T04:22:40;99093.78;;;14.81;43.92
25610;BME280;13479;49.044;8.716;2023-06-04T04:25:05;99093.28;;;14.77;43.90
25610;BME280;13479;49.044;8.716;2023-06-04T04:27:32;99088.91;;;14.76;44.16
25610;BME280;13479;49.044;8.716;2023-06-04T04:30:00;99107.28;;;15.06;43.29
25610;BME280;13479;49.044;8.716;2023-06-04T04:32:25;99108.31;;;15.13;43.36
25610;BME280;13479;49.044;8.716;2023-06-04T04:34:53;99121.06;;;15.19;43.03
25610;BME280;13479;49.044;8.716;2023-06-04T04:37:20;99124.31;;;15.39;42.57
25610;BME280;13479;49.044;8.716;2023-06-04T04:39:47;99128.00;;;15.38;42.58
25610;BME280;13479;49.044;8.716;2023-06-04T04:42:12;99134.41;;;15.46;42.33
25610;BME280;13479;49.044;8.716;2023-06-04T04:44:37;99132.84;;;15.43;42.50
25610;BME280;13479;49.044;8.716;2023-06-04T04:47:03;99137.22;;;15.44;42.47
25610;BME280;13479;49.044;8.716;2023-06-04T04:49:28;99142.63;;;15.52;42.46
25610;BME280;13479;49.044;8.716;2023-06-04T04:51:53;99142.47;;;15.62;42.56
25610;BME280;13479;49.044;8.716;2023-06-04T04:54:19;99145.13;;;15.62;42.17
25610;BME280;13479;49.044;8.716;2023-06-04T04:56:44;99145.34;;;15.69;42.34
25610;BME280;13479;49.044;8.716;2023-06-04T04:59:10;99145.25;;;15.87;41.80
25610;BME280;13479;49.044;8.716;2023-06-04T05:01:35;99154.81;;;15.98;41.47
25610;BME280;13479;49.044;8.716;2023-06-04T05:04:00;99152.66;;;16.01;41.57
25610;BME280;13479;49.044;8.716;2023-06-04T05:06:25;99154.66;;;16.16;41.08
25610;BME280;13479;49.044;8.716;2023-06-04T05:08:51;99155.53;;;16.33;40.85
25610;BME280;13479;49.044;8.716;2023-06-04T05:11:16;99154.34;;;16.52;40.61
25610;BME280;13479;49.044;8.716;2023-06-04T05:13:41;99154.69;;;16.74;40.49
25610;BME280;13479;49.044;8.716;2023-06-04T05:16:07;99155.75;;;17.77;39.00
25610;BME280;13479;49.044;8.716;2023-06-04T05:18:33;99153.59;;;19.27;35.94
25610;BME280;13479;49.044;8.716;2023-06-04T05:20:59;99155.25;;;20.53;33.71
25610;BME280;13479;49.044;8.716;2023-06-04T05:23:29;99160.19;;;21.70;31.75
25610;BME280;13479;49.044;8.716;2023-06-04T05:25:59;99184.06;;;22.15;30.55
25610;BME280;13479;49.044;8.716;2023-06-04T05:28:24;99201.44;;;22.81;29.94
25610;BME280;13479;49.044;8.716;2023-06-04T05:30:51;99216.16;;;23.59;28.80
25610;BME280;13479;49.044;8.716;2023-06-04T05:33:17;99232.72;;;24.03;28.06
25610;BME280;13479;49.044;8.716;2023-06-04T05:35:45;99240.78;;;24.87;27.45
25610;BME280;13479;49.044;8.716;2023-06-04T05:38:10;99247.88;;;25.39;27.01
25610;BME280;13479;49.044;8.716;2023-06-04T05:40:42;99253.97;;;25.78;26.00
25610;BME280;13479;49.044;8.716;2023-06-04T05:43:07;99271.19;;;25.72;25.88
25610;BME280;13479;49.044;8.716;2023-06-04T05:45:32;99273.16;;;25.83;25.98
25610;BME280;13479;49.044;8.716;2023-06-04T05:47:58;99271.97;;;26.16;25.67
25610;BME280;13479;49.044;8.716;2023-06-04T05:50:23;99281.00;;;26.78;24.96
25610;BME280;13479;49.044;8.716;2023-06-04T05:52:49;99267.03;;;26.98;24.69
25610;BME280;13479;49.044;8.716;2023-06-04T05:55:14;99285.81;;;27.30;24.26
25610;BME280;13479;49.044;8.716;2023-06-04T05:57:41;99283.19;;;27.35;24.39
25610;BME280;13479;49.044;8.716;2023-06-04T06:00:07;99282.97;;;27.25;24.01
25610;BME280;13479;49.044;8.716;2023-06-04T06:02:35;99298.00;;;27.16;24.39
25610;BME280;13479;49.044;8.716;2023-06-04T06:05:01;99297.56;;;27.66;23.96
25610;BME280;13479;49.044;8.716;2023-06-04T06:07:26;99294.31;;;28.17;23.02
25610;BME280;13479;49.044;8.716;2023-06-04T06:09:51;99291.63;;;28.63;22.44
25610;BME280;13479;49.044;8.716;2023-06-04T06:12:17;99301.84;;;28.39;22.95
25610;BME280;13479;49.044;8.716;2023-06-04T06:14:42;99302.31;;;28.35;22.92
25610;BME280;13479;49.044;8.716;2023-06-04T06:17:07;99305.75;;;28.43;22.73
25610;BME280;13479;49.044;8.716;2023-06-04T06:19:32;99314.81;;;28.60;22.99
25610;BME280;13479;49.044;8.716;2023-06-04T06:21:58;99321.28;;;28.71;22.52
25610;BME280;13479;49.044;8.716;2023-06-04T06:24:24;99317.38;;;28.96;22.55
25610;BME280;13479;49.044;8.716;2023-06-04T06:26:49;99321.56;;;28.99;22.02
25610;BME280;13479;49.044;8.716;2023-06-04T06:29:14;99321.63;;;29.04;21.62
25610;BME280;13479;49.044;8.716;2023-06-04T06:31:39;99317.28;;;29.37;21.91
25610;BME280;13479;49.044;8.716;2023-06-04T06:34:05;99318.50;;;29.46;21.68
25610;BME280;13479;49.044;8.716;2023-06-04T06:36:31;99319.81;;;30.17;21.29
25610;BME280;13479;49.044;8.716;2023-06-04T06:38:57;99320.56;;;30.84;20.30
25610;BME280;13479;49.044;8.716;2023-06-04T06:41:23;99308.63;;;31.28;19.71
25610;BME280;13479;49.044;8.716;2023-06-04T06:43:48;99314.81;;;31.51;19.75
25610;BME280;13479;49.044;8.716;2023-06-04T06:46:13;99323.81;;;31.79;19.74
25610;BME280;13479;49.044;8.716;2023-06-04T06:48:38;99332.63;;;31.86;19.46
25610;BME280;13479;49.044;8.716;2023-06-04T06:51:04;99332.97;;;32.58;18.90
25610;BME280;13479;49.044;8.716;2023-06-04T06:53:29;99326.13;;;32.76;19.17
25610;BME280;13479;49.044;8.716;2023-06-04T06:55:55;99333.03;;;32.89;18.42
25610;BME280;13479;49.044;8.716;2023-06-04T06:58:21;99333.63;;;33.48;18.25
25610;BME280;13479;49.044;8.716;2023-06-04T07:00:48;99335.22;;;33.91;18.19
25610;BME280;13479;49.044;8.716;2023-06-04T07:03:13;99333.84;;;34.54;17.38
25610;BME280;13479;49.044;8.716;2023-06-04T07:05:38;99326.66;;;35.03;16.91
25610;BME280;13479;49.044;8.716;2023-06-04T07:08:04;99326.00;;;35.16;16.11
25610;BME280;13479;49.044;8.716;2023-06-04T07:10:29;99325.81;;;35.37;16.63
25610;BME280;13479;49.044;8.716;2023-06-04T07:12:55;99335.34;;;34.80;16.83
25610;BME280;13479;49.044;8.716;2023-06-04T07:15:20;99334.19;;;34.87;17.11
25610;BME280;13479;49.044;8.716;2023-06-04T07:17:45;99329.69;;;35.06;16.67
25610;BME280;13479;49.044;8.716;2023-06-04T07:20:10;99329.47;;;35.62;16.89
25610;BME280;13479;49.044;8.716;2023-06-04T07:22:36;99322.91;;;35.58;16.96
25610;BME280;13479;49.044;8.716;2023-06-04T07:25:01;99333.00;;;35.97;16.29
25610;BME280;13479;49.044;8.716;2023-06-04T07:27:27;99328.94;;;36.32;15.58
25610;BME280;13479;49.044;8.716;2023-06-04T07:29:52;99329.44;;;36.40;15.61
25610;BME280;13479;49.044;8.716;2023-06-04T07:32:18;99341.00;;;36.42;15.79
25610;BME280;13479;49.044;8.716;2023-06-04T07:34:43;99335.91;;;36.92;15.89
25610;BME280;13479;49.044;8.716;2023-06-04T07:37:08;99331.03;;;37.03;15.21
25610;BME280;13479;49.044;8.716;2023-06-04T07:39:35;99336.56;;;36.84;15.19
25610;BME280;13479;49.044;8.716;2023-06-04T07:42:00;99330.22;;;36.45;15.68
25610;BME280;13479;49.044;8.716;2023-06-04T07:44:25;99340.31;;;36.93;15.53
25610;BME280;13479;49.044;8.716;2023-06-04T07:46:50;99341.78;;;37.38;15.70
25610;BME280;13479;49.044;8.716;2023-06-04T07:49:15;99336.84;;;37.68;14.98
25610;BME280;13479;49.044;8.716;2023-06-04T07:51:41;99342.75;;;38.08;15.00
25610;BME280;13479;49.044;8.716;2023-06-04T07:54:06;99340.06;;;38.31;14.88
25610;BME280;13479;49.044;8.716;2023-06-04T07:56:32;99344.44;;;38.60;13.92
25610;BME280;13479;49.044;8.716;2023-06-04T07:58:57;99332.03;;;37.74;14.89
25610;BME280;13479;49.044;8.716;2023-06-04T08:01:22;99330.56;;;37.62;15.19
25610;BME280;13479;49.044;8.716;2023-06-04T08:03:49;99339.63;;;37.35;15.47
25610;BME280;13479;49.044;8.716;2023-06-04T08:06:14;99330.06;;;36.75;15.91
25610;BME280;13479;49.044;8.716;2023-06-04T08:08:45;99318.25;;;36.50;16.14
25610;BME280;13479;49.044;8.716;2023-06-04T08:11:11;99317.03;;;37.14;15.65
25610;BME280;13479;49.044;8.716;2023-06-04T08:13:36;99315.00;;;37.66;15.07
25610;BME280;13479;49.044;8.716;2023-06-04T08:16:02;99311.19;;;37.15;15.76
25610;BME280;13479;49.044;8.716;2023-06-04T08:18:27;99320.28;;;37.16;15.96
25610;BME280;13479;49.044;8.716;2023-06-04T08:20:52;99309.66;;;37.56;15.80
25610;BME280;13479;49.044;8.716;2023-06-04T08:23:18;99312.75;;;38.24;15.54
25610;BME280;13479;49.044;8.716;2023-06-04T08:25:43;99313.03;;;38.87;15.21
25610;BME280;13479;49.044;8.716;2023-06-04T08:28:08;99318.59;;;38.73;14.79
25610;BME280;13479;49.044;8.716;2023-06-04T08:30:35;99319.00;;;38.81;15.18
25610;BME280;13479;49.044;8.716;2023-06-04T08:33:01;99317.81;;;38.73;14.66
25610;BME280;13479;49.044;8.716;2023-06-04T08:35:26;99314.44;;;38.62;15.23
25610;BME280;13479;49.044;8.716;2023-06-04T08:37:51;99310.69;;;38.30;15.30
25610;BME280;13479;49.044;8.716;2023-06-04T08:40:17;99311.88;;;39.11;15.11
25610;BME280;13479;49.044;8.716;2023-06-04T08:42:43;99322.09;;;39.24;14.85
25610;BME280;13479;49.044;8.716;2023-06-04T08:45:11;99315.50;;;39.34;15.02
25610;BME280;13479;49.044;8.716;2023-06-04T08:47:44;99324.38;;;39.22;14.87
25610;BME280;13479;49.044;8.716;2023-06-04T08:50:16;99322.53;;;39.41;14.98
25610;BME280;13479;49.044;8.716;2023-06-04T08:52:42;99319.78;;;39.41;14.38
25610;BME280;13479;49.044;8.716;2023-06-04T08:55:08;99327.09;;;39.14;14.77
25610;BME280;13479;49.044;8.716;2023-06-04T08:57:36;99337.72;;;39.34;15.05
25610;BME280;13479;49.044;8.716;2023-06-04T09:00:01;99328.44;;;39.16;14.85
25610;BME280;13479;49.044;8.716;2023-06-04T09:02:29;99329.13;;;38.99;15.57
25610;BME280;13479;49.044;8.716;2023-06-04T09:04:54;99324.69;;;39.21;14.92
25610;BME280;13479;49.044;8.716;2023-06-04T09:07:20;99321.84;;;39.66;15.25
25610;BME280;13479;49.044;8.716;2023-06-04T09:09:47;99314.44;;;39.93;14.58
25610;BME280;13479;49.044;8.716;2023-06-04T09:12:24;99325.06;;;40.49;14.50
25610;BME280;13479;49.044;8.716;2023-06-04T09:14:49;99324.47;;;40.70;14.03
25610;BME280;13479;49.044;8.716;2023-06-04T09:17:20;99325.28;;;40.04;13.95
25610;BME280;13479;49.044;8.716;2023-06-04T09:19:45;99329.69;;;39.64;15.16
25610;BME280;13479;49.044;8.716;2023-06-04T09:22:11;99332.78;;;39.63;14.78
25610;BME280;13479;49.044;8.716;2023-06-04T09:24:47;99323.56;;;39.45;14.62
25610;BME280;13479;49.044;8.716;2023-06-04T09:27:18;99327.53;;;39.61;15.20
25610;BME280;13479;49.044;8.716;2023-06-04T09:32:25;99325.34;;;40.21;13.66
25610;BME280;13479;49.044;8.716;2023-06-04T09:34:55;99322.44;;;40.44;14.52
25610;BME280;13479;49.044;8.716;2023-06-04T09:37:22;99323.34;;;40.13;14.69
25610;BME280;13479;49.044;8.716;2023-06-04T09:39:57;99326.28;;;39.67;13.96
25610;BME280;13479;49.044;8.716;2023-06-04T09:42:23;99317.00;;;39.18;15.50
25610;BME280;13479;49.044;8.716;2023-06-04T09:44:49;99306.78;;;39.04;14.78
25610;BME280;13479;49.044;8.716;2023-06-04T09:47:14;99313.00;;;39.01;15.57
25610;BME280;13479;49.044;8.716;2023-06-04T09:49:45;99298.47;;;39.27;14.95
25610;BME280;13479;49.044;8.716;2023-06-04T09:52:10;99299.47;;;38.86;14.54
25610;BME280;13479;49.044;8.716;2023-06-04T09:54:38;99306.31;;;38.66;15.55
25610;BME280;13479;49.044;8.716;2023-06-04T09:57:20;99308.06;;;37.97;14.77
25610;BME280;13479;49.044;8.716;2023-06-04T09:59:49;99310.13;;;37.11;15.70
25610;BME280;13479;49.044;8.716;2023-06-04T10:02:20;99304.66;;;36.73;15.99
25610;BME280;13479;49.044;8.716;2023-06-04T10:04:49;99292.03;;;36.47;15.67
25610;BME280;13479;49.044;8.716;2023-06-04T10:07:19;99296.31;;;35.67;17.36
25610;BME280;13479;49.044;8.716;2023-06-04T10:09:44;99295.44;;;35.07;16.30
25610;BME280;13479;49.044;8.716;2023-06-04T10:12:14;99280.56;;;34.69;16.46
25610;BME280;13479;49.044;8.716;2023-06-04T10:14:52;99280.00;;;34.72;17.27
25610;BME280;13479;49.044;8.716;2023-06-04T10:17:20;99273.69;;;34.66;17.19
25610;BME280;13479;49.044;8.716;2023-06-04T10:19:48;99279.03;;;34.52;17.12
25610;BME280;13479;49.044;8.716;2023-06-04T10:22:14;99274.78;;;34.15;16.85
25610;BME280;13479;49.044;8.716;2023-06-04T10:24:40;99272.44;;;33.82;16.78
25610;BME280;13479;49.044;8.716;2023-06-04T10:27:05;99261.00;;;33.34;17.68
25610;BME280;13479;49.044;8.716;2023-06-04T10:29:36;99264.28;;;32.79;17.40
25610;BME280;13479;49.044;8.716;2023-06-04T10:32:01;99254.88;;;32.49;17.54
25610;BME280;13479;49.044;8.716;2023-06-04T10:34:27;99255.91;;;32.22;18.29
25610;BME280;13479;49.044;8.716;2023-06-04T10:36:52;99243.31;;;32.31;18.33
25610;BME280;13479;49.044;8.716;2023-06-04T10:39:28;99240.03;;;32.40;18.04
25610;BME280;13479;49.044;8.716;2023-06-04T10:41:58;99230.16;;;32.49;18.01
25610;BME280;13479;49.044;8.716;2023-06-04T10:44:24;99235.66;;;32.49;17.77
25610;BME280;13479;49.044;8.716;2023-06-04T10:46:49;99244.44;;;32.41;18.12
25610;BME280;13479;49.044;8.716;2023-06-04T10:49:26;99228.97;;;32.19;18.35
25610;BME280;13479;49.044;8.716;2023-06-04T10:51:52;99231.09;;;31.96;18.40
25610;BME280;13479;49.044;8.716;2023-06-04T10:54:24;99229.88;;;32.30;18.19
25610;BME280;13479;49.044;8.716;2023-06-04T10:56:53;99229.94;;;32.82;18.07
25610;BME280;13479;49.044;8.716;2023-06-04T10:59:21;99236.75;;;32.63;17.79
25610;BME280;13479;49.044;8.716;2023-06-04T11:01:49;99236.41;;;32.18;18.50
25610;BME280;13479;49.044;8.716;2023-06-04T11:04:25;99239.53;;;31.31;19.32
25610;BME280;13479;49.044;8.716;2023-06-04T11:07:00;99229.72;;;30.70;20.01
25610;BME280;13479;49.044;8.716;2023-06-04T11:09:29;99232.31;;;30.55;20.02
25610;BME280;13479;49.044;8.716;2023-06-04T11:12:02;99232.03;;;30.84;20.55
25610;BME280;13479;49.044;8.716;2023-06-04T11:14:27;99222.13;;;30.77;19.29
25610;BME280;13479;49.044;8.716;2023-06-04T11:16:53;99224.53;;;30.74;20.57
25610;BME280;13479;49.044;8.716;2023-06-04T11:19:18;99225.94;;;30.22;20.23
25610;BME280;13479;49.044;8.716;2023-06-04T11:21:44;99218.66;;;29.26;21.03
25610;BME280;13479;49.044;8.716;2023-06-04T11:24:11;99214.97;;;28.81;21.28
25610;BME280;13479;49.044;8.716;2023-06-04T11:26:37;99208.88;;;28.45;21.94
25610;BME280;13479;49.044;8.716;2023-06-04T11:29:06;99212.84;;;28.09;22.43
25610;BME280;13479;49.044;8.716;2023-06-04T11:31:42;99211.22;;;27.84;23.18
25610;BME280;13479;49.044;8.716;2023-06-04T11:34:08;99211.09;;;27.79;23.01
25610;BME280;13479;49.044;8.716;2023-06-04T11:36:33;99202.03;;;27.61;23.40
25610;BME280;13479;49.044;8.716;2023-06-04T11:39:00;99200.38;;;27.48;23.46
25610;BME280;13479;49.044;8.716;2023-06-04T11:41:30;99193.50;;;27.34;23.31
25610;BME280;13479;49.044;8.716;2023-06-04T11:43:56;99182.00;;;27.20;23.07
25610;BME280;13479;49.044;8.716;2023-06-04T11:46:22;99183.78;;;27.02;23.38
25610;BME280;13479;49.044;8.716;2023-06-04T11:48:47;99189.81;;;26.92;23.12
25610;BME280;13479;49.044;8.716;2023-06-04T11:51:15;99184.72;;;26.84;23.39
25610;BME280;13479;49.044;8.716;2023-06-04T11:53:40;99178.19;;;26.73;23.83
25610;BME280;13479;49.044;8.716;2023-06-04T11:56:06;99176.72;;;26.59;23.52
25610;BME280;13479;49.044;8.716;2023-06-04T11:58:32;99167.09;;;26.44;23.87
25610;BME280;13479;49.044;8.716;2023-06-04T12:00:58;99165.59;;;26.48;23.47
25610;BME280;13479;49.044;8.716;2023-06-04T12:03:38;99178.59;;;26.46;23.73
25610;BME280;13479;49.044;8.716;2023-06-04T12:06:16;99169.28;;;26.54;23.46
25610;BME280;13479;49.044;8.716;2023-06-04T12:08:49;99176.59;;;26.54;23.60
25610;BME280;13479;49.044;8.716;2023-06-04T12:11:34;99174.13;;;26.52;23.03
25610;BME280;13479;49.044;8.716;2023-06-04T12:14:03;99159.19;;;26.55;23.32
25610;BME280;13479;49.044;8.716;2023-06-04T12:16:28;99163.13;;;26.59;23.51
25610;BME280;13479;49.044;8.716;2023-06-04T12:19:11;99153.97;;;26.41;23.74
25610;BME280;13479;49.044;8.716;2023-06-04T12:21:38;99147.81;;;26.34;23.12
25610;BME280;13479;49.044;8.716;2023-06-04T12:24:11;99142.81;;;26.31;23.49
25610;BME280;13479;49.044;8.716;2023-06-04T12:26:38;99151.31;;;26.23;22.57
25610;BME280;13479;49.044;8.716;2023-06-04T12:29:10;99149.66;;;26.21;23.15
25610;BME280;13479;49.044;8.716;2023-06-04T12:31:37;99150.03;;;26.25;23.24
25610;BME280;13479;49.044;8.716;2023-06-04T12:34:02;99156.31;;;26.26;23.35
25610;BME280;13479;49.044;8.716;2023-06-04T12:36:28;99154.13;;;26.16;23.36
25610;BME280;13479;49.044;8.716;2023-06-04T12:38:57;99144.97;;;26.29;23.61
25610;BME280;13479;49.044;8.716;2023-06-04T12:41:23;99150.41;;;26.29;23.04
25610;BME280;13479;49.044;8.716;2023-06-04T12:43:48;99151.72;;;26.38;23.19
25610;BME280;13479;49.044;8.716;2023-06-04T12:46:13;99158.22;;;26.37;23.30
25610;BME280;13479;49.044;8.716;2023-06-04T12:48:39;99150.69;;;26.51;23.69
25610;BME280;13479;49.044;8.716;2023-06-04T12:51:04;99162.97;;;26.54;23.78
25610;BME280;13479;49.044;8.716;2023-06-04T12:53:30;99158.25;;;26.49;23.30
25610;BME280;13479;49.044;8.716;2023-06-04T12:55:55;99163.47;;;26.50;23.43
25610;BME280;13479;49.044;8.716;2023-06-04T12:58:20;99159.09;;;26.49;23.20
25610;BME280;13479;49.044;8.716;2023-06-04T13:00:45;99147.44;;;26.30;24.07
25610;BME280;13479;49.044;8.716;2023-06-04T13:03:11;99152.63;;;26.32;23.82
25610;BME280;13479;49.044;8.716;2023-06-04T13:05:36;99150.88;;;26.26;23.13
25610;BME280;13479;49.044;8.716;2023-06-04T13:08:01;99141.16;;;26.30;24.13
25610;BME280;13479;49.044;8.716;2023-06-04T13:10:27;99133.13;;;26.35;23.97
25610;BME280;13479;49.044;8.716;2023-06-04T13:12:52;99136.19;;;26.27;23.65
25610;BME280;13479;49.044;8.716;2023-06-04T13:15:17;99133.47;;;26.27;24.06
25610;BME280;13479;49.044;8.716;2023-06-04T13:17:43;99143.31;;;26.28;23.54
25610;BME280;13479;49.044;8.716;2023-06-04T13:20:08;99137.84;;;26.28;24.13
25610;BME280;13479;49.044;8.716;2023-06-04T13:22:34;99140.44;;;26.23;24.21
25610;BME280;13479;49.044;8.716;2023-06-04T13:25:00;99139.97;;;26.26;23.88
25610;BME280;13479;49.044;8.716;2023-06-04T13:27:25;99139.22;;;26.18;24.84
25610;BME280;13479;49.044;8.716;2023-06-04T13:29:50;99143.66;;;26.31;23.52
25610;BME280;13479;49.044;8.716;2023-06-04T13:32:15;99147.81;;;26.34;24.35
25610;BME280;13479;49.044;8.716;2023-06-04T13:34:41;99151.81;;;26.31;23.79
25610;BME280;13479;49.044;8.716;2023-06-04T13:37:06;99135.72;;;26.30;23.99
25610;BME280;13479;49.044;8.716;2023-06-04T13:39:32;99146.13;;;26.33;24.34
25610;BME280;13479;49.044;8.716;2023-06-04T13:41:57;99140.69;;;26.33;23.62
25610;BME280;13479;49.044;8.716;2023-06-04T13:44:22;99133.13;;;26.35;23.67
25610;BME280;13479;49.044;8.716;2023-06-04T13:46:51;99136.66;;;26.24;24.49
25610;BME280;13479;49.044;8.716;2023-06-04T13:49:17;99137.75;;;26.34;23.14
25610;BME280;13479;49.044;8.716;2023-06-04T13:51:42;99138.47;;;26.42;23.35
25610;BME280;13479;49.044;8.716;2023-06-04T13:54:07;99135.97;;;26.28;23.28
25610;BME280;13479;49.044;8.716;2023-06-04T13:56:33;99142.81;;;26.31;23.58
25610;BME280;13479;49.044;8.716;2023-06-04T13:58:58;99135.84;;;26.35;22.67
25610;BME280;13479;49.044;8.716;2023-06-04T14:01:24;99144.38;;;26.39;22.51
25610;BME280;13479;49.044;8.716;2023-06-04T14:03:49;99141.75;;;26.32;22.11
25610;BME280;13479;49.044;8.716;2023-06-04T14:06:15;99136.56;;;26.30;22.26
25610;BME280;13479;49.044;8.716;2023-06-04T14:08:40;99136.19;;;26.27;23.03
25610;BME280;13479;49.044;8.716;2023-06-04T14:11:05;99136.41;;;26.25;22.79
25610;BME280;13479;49.044;8.716;2023-06-04T14:13:31;99140.69;;;26.33;22.28
25610;BME280;13479;49.044;8.716;2023-06-04T14:15:56;99143.16;;;26.23;22.02
25610;BME280;13479;49.044;8.716;2023-06-04T14:18:21;99137.34;;;26.19;22.71
25610;BME280;13479;49.044;8.716;2023-06-04T14:20:47;99135.09;;;26.16;22.26
25610;BME280;13479;49.044;8.716;2023-06-04T14:23:12;99142.34;;;26.03;22.59
25610;BME280;13479;49.044;8.716;2023-06-04T14:25:37;99139.72;;;26.15;23.11
25610;BME280;13479;49.044;8.716;2023-06-04T14:28:03;99130.50;;;26.16;22.14
25610;BME280;13479;49.044;8.716;2023-06-04T14:30:28;99131.22;;;26.24;22.05
25610;BME280;13479;49.044;8.716;2023-06-04T14:32:53;99138.22;;;26.31;21.47
25610;BME280;13479;49.044;8.716;2023-06-04T14:35:18;99137.13;;;26.20;21.27
25610;BME280;13479;49.044;8.716;2023-06-04T14:37:44;99127.16;;;26.14;22.39
25610;BME280;13479;49.044;8.716;2023-06-04T14:40:09;99130.00;;;26.19;22.39
25610;BME280;13479;49.044;8.716;2023-06-04T14:42:36;99124.56;;;26.19;21.39
25610;BME280;13479;49.044;8.716;2023-06-04T14:45:02;99128.84;;;26.15;21.94
25610;BME280;13479;49.044;8.716;2023-06-04T14:47:27;99127.19;;;26.26;21.44
25610;BME280;13479;49.044;8.716;2023-06-04T14:49:52;99143.22;;;26.34;21.20
25610;BME280;13479;49.044;8.716;2023-06-04T14:52:17;99123.06;;;26.35;20.38
25610;BME280;13479;49.044;8.716;2023-06-04T14:54:43;99121.53;;;26.28;20.72
25610;BME280;13479;49.044;8.716;2023-06-04T14:57:08;99129.34;;;26.36;20.33
25610;BME280;13479;49.044;8.716;2023-06-04T14:59:33;99122.44;;;26.21;21.55
25610;BME280;13479;49.044;8.716;2023-06-04T15:02:00;99118.22;;;26.26;21.75
25610;BME280;13479;49.044;8.716;2023-06-04T15:04:25;99117.84;;;26.22;21.47
25610;BME280;13479;49.044;8.716;2023-06-04T15:06:51;99115.16;;;26.34;21.05
25610;BME280;13479;49.044;8.716;2023-06-04T15:09:16;99120.00;;;26.32;20.67
25610;BME280;13479;49.044;8.716;2023-06-04T15:11:41;99123.44;;;26.39;20.54
25610;BME280;13479;49.044;8.716;2023-06-04T15:14:07;99117.25;;;26.32;20.04
25610;BME280;13479;49.044;8.716;2023-06-04T15:16:32;99126.59;;;26.24;20.22
25610;BME280;13479;49.044;8.716;2023-06-04T15:18:57;99118.66;;;26.23;19.97
25610;BME280;13479;49.044;8.716;2023-06-04T15:21:22;99116.56;;;26.25;20.85
25610;BME280;13479;49.044;8.716;2023-06-04T15:23:48;99123.19;;;26.29;20.93
25610;BME280;13479;49.044;8.716;2023-06-04T15:26:14;99100.38;;;26.42;21.03
25610;BME280;13479;49.044;8.716;2023-06-04T15:28:40;99121.66;;;26.33;20.56
25610;BME280;13479;49.044;8.716;2023-06-04T15:31:05;99120.94;;;26.26;20.60
25610;BME280;13479;49.044;8.716;2023-06-04T15:33:30;99112.72;;;26.14;21.37
25610;BME280;13479;49.044;8.716;2023-06-04T15:35:55;99115.09;;;26.10;21.97
25610;BME280;13479;49.044;8.716;2023-06-04T15:38:21;99108.38;;;26.25;20.76
25610;BME280;13479;49.044;8.716;2023-06-04T15:40:46;99111.44;;;26.16;20.92
25610;BME280;13479;49.044;8.716;2023-06-04T15:43:12;99108.38;;;26.25;20.69
25610;BME280;13479;49.044;8.716;2023-06-04T15:45:37;99098.56;;;26.24;21.31
25610;BME280;13479;49.044;8.716;2023-06-04T15:48:03;99109.00;;;26.27;20.90
25610;BME280;13479;49.044;8.716;2023-06-04T15:50:28;99094.53;;;26.14;21.63
25610;BME280;13479;49.044;8.716;2023-06-04T15:52:53;99097.06;;;26.09;21.44
25610;BME280;13479;49.044;8.716;2023-06-04T15:55:18;99094.97;;;26.11;21.85
25610;BME280;13479;49.044;8.716;2023-06-04T15:57:44;99089.94;;;26.39;20.58
25610;BME280;13479;49.044;8.716;2023-06-04T16:00:09;99092.06;;;26.36;21.13
25610;BME280;13479;49.044;8.716;2023-06-04T16:02:35;99096.59;;;26.43;20.20
25610;BME280;13479;49.044;8.716;2023-06-04T16:05:00;99092.06;;;26.25;20.38
25610;BME280;13479;49.044;8.716;2023-06-04T16:07:25;99094.88;;;26.18;20.58
25610;BME280;13479;49.044;8.716;2023-06-04T16:09:51;99093.59;;;26.20;21.46
25610;BME280;13479;49.044;8.716;2023-06-04T16:12:16;99084.50;;;26.27;21.38
25610;BME280;13479;49.044;8.716;2023-06-04T16:14:41;99086.97;;;26.28;21.37
25610;BME280;13479;49.044;8.716;2023-06-04T16:17:06;99077.66;;;26.36;20.71
25610;BME280;13479;49.044;8.716;2023-06-04T16:19:32;99076.94;;;26.41;20.87
25610;BME280;13479;49.044;8.716;2023-06-04T16:21:57;99080.84;;;26.33;20.91
25610;BME280;13479;49.044;8.716;2023-06-04T16:24:23;99074.78;;;26.31;20.87
25610;BME280;13479;49.044;8.716;2023-06-04T16:26:48;99068.78;;;26.29;21.10
25610;BME280;13479;49.044;8.716;2023-06-04T16:29:13;99069.59;;;26.29;20.38
25610;BME280;13479;49.044;8.716;2023-06-04T16:31:39;99079.31;;;26.37;20.53
25610;BME280;13479;49.044;8.716;2023-06-04T16:34:04;99074.44;;;26.27;21.04
25610;BME280;13479;49.044;8.716;2023-06-04T16:36:29;99068.50;;;26.18;21.16
25610;BME280;13479;49.044;8.716;2023-06-04T16:38:55;99068.88;;;26.22;21.09
25610;BME280;13479;49.044;8.716;2023-06-04T16:41:20;99071.91;;;26.14;21.26
25610;BME280;13479;49.044;8.716;2023-06-04T16:43:47;99076.91;;;26.17;21.31
25610;BME280;13479;49.044;8.716;2023-06-04T16:46:12;99071.97;;;26.07;21.29
25610;BME280;13479;49.044;8.716;2023-06-04T16:48:37;99076.00;;;25.93;21.50
25610;BME280;13479;49.044;8.716;2023-06-04T16:51:02;99059.56;;;25.99;21.72
25610;BME280;13479;49.044;8.716;2023-06-04T16:53:28;99059.78;;;25.98;22.24
25610;BME280;13479;49.044;8.716;2023-06-04T16:55:55;99052.84;;;26.02;22.13
25610;BME280;13479;49.044;8.716;2023-06-04T16:58:20;99059.78;;;25.86;21.76